sensor_id;sensor_type;location;lat;lon;timestamp;temperature;humidity
20162;DHT22;51382;53.180;15.414;2022-09-04T00:07:50;12.50;99.90
20162;DHT22;51382;53.180;15.414;2022-09-04T00:23:08;12.50;99.90
20162;DHT22;51382;53.180;15.414;2022-09-04T00:38:33;12.40;99.90
20162;DHT22;51382;53.180;15.414;2022-09-04T00:53:57;12.10;99.90
20162;DHT22;51382;53.180;15.414;2022-09-04T01:25:14;11.60;99.90
20162;DHT22;51382;53.180;15.414;2022-09-04T01:40:42;11.40;99.90
20162;DHT22;51382;53.180;15.414;2022-09-04T01:55:57;11.20;99.90
20162;DHT22;51382;53.180;15.414;2022-09-04T02:11:18;11.00;99.90
20162;DHT22;51382;53.180;15.414;2022-09-04T02:26:31;10.70;99.90
20162;DHT22;51382;53.180;15.414;2022-09-04T02:41:48;10.70;99.90
20162;DHT22;51382;53.180;15.414;2022-09-04T02:57:13;10.60;99.90
20162;DHT22;51382;53.180;15.414;2022-09-04T03:12:33;10.40;99.90
20162;DHT22;51382;53.180;15.414;2022-09-04T03:27:47;10.30;99.90
20162;DHT22;51382;53.180;15.414;2022-09-04T03:42:57;10.20;99.90
20162;DHT22;51382;53.180;15.414;2022-09-04T03:58:16;10.20;99.90
20162;DHT22;51382;53.180;15.414;2022-09-04T04:13:44;10.10;99.90
20162;DHT22;51382;53.180;15.414;2022-09-04T04:29:13;10.10;99.90
20162;DHT22;51382;53.180;15.414;2022-09-04T04:44:48;10.10;99.90
20162;DHT22;51382;53.180;15.414;2022-09-04T05:00:21;10.10;99.90
20162;DHT22;51382;53.180;15.414;2022-09-04T05:15:39;12.10;99.90
20162;DHT22;51382;53.180;15.414;2022-09-04T05:30:57;11.30;99.90
20162;DHT22;51382;53.180;15.414;2022-09-04T05:46:24;11.50;99.90
20162;DHT22;51382;53.180;15.414;2022-09-04T06:01:51;11.90;99.90
20162;DHT22;51382;53.180;15.414;2022-09-04T06:17:17;12.60;99.90
20162;DHT22;51382;53.180;15.414;2022-09-04T06:32:50;13.60;99.90
20162;DHT22;51382;53.180;15.414;2022-09-04T06:48:14;17.10;99.90
20162;DHT22;51382;53.180;15.414;2022-09-04T07:03:39;19.60;99.90
20162;DHT22;51382;53.180;15.414;2022-09-04T07:34:56;19.30;99.90
20162;DHT22;51382;53.180;15.414;2022-09-04T07:50:16;20.90;99.90
20162;DHT22;51382;53.180;15.414;2022-09-04T08:05:27;19.30;99.90
20162;DHT22;51382;53.180;15.414;2022-09-04T08:20:46;17.40;99.90
20162;DHT22;51382;53.180;15.414;2022-09-04T08:36:08;17.80;99.90
20162;DHT22;51382;53.180;15.414;2022-09-04T08:51:49;18.70;99.90
20162;DHT22;51382;53.180;15.414;2022-09-04T09:07:39;19.00;99.90
20162;DHT22;51382;53.180;15.414;2022-09-04T09:23:14;20.00;99.90
20162;DHT22;51382;53.180;15.414;2022-09-04T09:38:37;20.50;99.90
20162;DHT22;51382;53.180;15.414;2022-09-04T09:54:12;24.60;99.90
20162;DHT22;51382;53.180;15.414;2022-09-04T10:25:46;22.20;99.90
20162;DHT22;51382;53.180;15.414;2022-09-04T10:41:21;23.40;99.90
20162;DHT22;51382;53.180;15.414;2022-09-04T10:56:49;23.90;99.90
20162;DHT22;51382;53.180;15.414;2022-09-04T11:44:09;22.20;99.90
20162;DHT22;51382;53.180;15.414;2022-09-04T11:59:53;22.40;99.90
20162;DHT22;51382;53.180;15.414;2022-09-04T12:31:19;22.20;99.90
20162;DHT22;51382;53.180;15.414;2022-09-04T12:46:51;22.50;99.90
20162;DHT22;51382;53.180;15.414;2022-09-04T13:02:23;22.70;99.90
20162;DHT22;51382;53.180;15.414;2022-09-04T13:17:43;23.20;99.90
20162;DHT22;51382;53.180;15.414;2022-09-04T13:33:07;22.50;99.90
20162;DHT22;51382;53.180;15.414;2022-09-04T13:48:28;22.60;99.90
20162;DHT22;51382;53.180;15.414;2022-09-04T14:03:46;22.30;99.90
20162;DHT22;51382;53.180;15.414;2022-09-04T14:19:04;22.60;99.90
20162;DHT22;51382;53.180;15.414;2022-09-04T14:34:41;22.50;99.90
20162;DHT22;51382;53.180;15.414;2022-09-04T14:50:07;22.80;99.90
20162;DHT22;51382;53.180;15.414;2022-09-04T15:05:21;22.70;99.90
20162;DHT22;51382;53.180;15.414;2022-09-04T15:20:30;22.50;99.90
20162;DHT22;51382;53.180;15.414;2022-09-04T15:35:44;21.70;99.90
20162;DHT22;51382;53.180;15.414;2022-09-04T15:51:14;21.80;99.90
20162;DHT22;51382;53.180;15.414;2022-09-04T16:06:31;21.60;99.90
20162;DHT22;51382;53.180;15.414;2022-09-04T16:21:53;20.40;99.90
20162;DHT22;51382;53.180;15.414;2022-09-04T16:37:18;20.90;99.90
20162;DHT22;51382;53.180;15.414;2022-09-04T16:52:33;20.60;99.90
20162;DHT22;51382;53.180;15.414;2022-09-04T17:07:53;20.30;99.90
20162;DHT22;51382;53.180;15.414;2022-09-04T17:23:08;19.80;99.90
20162;DHT22;51382;53.180;15.414;2022-09-04T17:38:29;19.00;99.90
20162;DHT22;51382;53.180;15.414;2022-09-04T17:53:48;18.60;99.90
20162;DHT22;51382;53.180;15.414;2022-09-04T18:09:03;18.10;99.90
20162;DHT22;51382;53.180;15.414;2022-09-04T18:24:23;17.80;99.90
20162;DHT22;51382;53.180;15.414;2022-09-04T18:39:41;17.60;99.90
20162;DHT22;51382;53.180;15.414;2022-09-04T18:54:53;17.40;99.90
20162;DHT22;51382;53.180;15.414;2022-09-04T19:10:18;16.80;99.90
20162;DHT22;51382;53.180;15.414;2022-09-04T19:25:33;16.40;99.90
20162;DHT22;51382;53.180;15.414;2022-09-04T19:40:50;16.50;99.90
20162;DHT22;51382;53.180;15.414;2022-09-04T19:56:08;16.20;99.90
20162;DHT22;51382;53.180;15.414;2022-09-04T20:11:28;15.60;99.90
20162;DHT22;51382;53.180;15.414;2022-09-04T20:26:44;15.30;99.90
20162;DHT22;51382;53.180;15.414;2022-09-04T20:41:59;15.00;99.90
20162;DHT22;51382;53.180;15.414;2022-09-04T20:57:09;14.80;99.90
20162;DHT22;51382;53.180;15.414;2022-09-04T21:12:32;15.30;99.90
20162;DHT22;51382;53.180;15.414;2022-09-04T21:28:08;14.90;99.90
20162;DHT22;51382;53.180;15.414;2022-09-04T21:43:50;14.50;99.90
20162;DHT22;51382;53.180;15.414;2022-09-04T21:59:18;14.30;99.90
20162;DHT22;51382;53.180;15.414;2022-09-04T22:14:45;14.00;99.90
20162;DHT22;51382;53.180;15.414;2022-09-04T22:30:08;13.70;99.90
20162;DHT22;51382;53.180;15.414;2022-09-04T23:00:59;13.30;99.90
20162;DHT22;51382;53.180;15.414;2022-09-04T23:16:36;13.10;99.90
20162;DHT22;51382;53.180;15.414;2022-09-04T23:32:09;12.90;99.90
